Time;durP1;ratioP1;P1;durP2;ratioP2;P2;SDS_P1;SDS_P2;PMS_P1;PMS_P2;Temp;Humidity;BMP_temperature;BMP_pressure;BME280_temperature;BME280_humidity;BME280_pressure;Samples;Min_cycle;Max_cycle;Signal;HPM_P1;HPM_P2
2023/08/19 00:01:15;;;;;;;25.10;3.78;;;;;;;;;;5053424;28;20031;-38
2023/08/19 00:03:42;;;;;;;23.80;3.97;;;;;;;;;;5052354;28;20040;-38
2023/08/19 00:06:13;;;;;;;19.77;4.22;;;;;;;;;;5051440;28;20021;-38
2023/08/19 00:08:40;;;;;;;17.58;3.38;;;;;;;;;;5053226;28;20075;-38
2023/08/19 00:11:07;;;;;;;21.52;3.53;;;;;;;;;;5053492;28;20056;-38
2023/08/19 00:13:34;;;;;;;16.73;3.40;;;;;;;;;;5053221;28;20099;-38
2023/08/19 00:16:01;;;;;;;16.27;2.90;;;;;;;;;;5069169;28;20028;-38
2023/08/19 00:18:28;;;;;;;12.52;2.72;;;;;;;;;;5073203;28;20125;-38
2023/08/19 00:20:55;;;;;;;17.05;3.42;;;;;;;;;;5056469;28;20029;-38
2023/08/19 00:23:24;;;;;;;13.65;3.00;;;;;;;;;;5053210;28;20489;-38
2023/08/19 00:25:52;;;;;;;14.02;3.15;;;;;;;;;;5053043;28;20099;-38
2023/08/19 00:28:18;;;;;;;10.43;2.80;;;;;;;;;;5053151;28;20036;-38
2023/08/19 00:30:45;;;;;;;13.40;3.22;;;;;;;;;;5052683;28;20074;-38
2023/08/19 00:33:12;;;;;;;15.60;3.25;;;;;;;;;;5058653;28;20021;-37
2023/08/19 00:35:42;;;;;;;29.95;3.90;;;;;;;;;;5058823;28;20056;-35
2023/08/19 00:38:09;;;;;;;16.50;3.38;;;;;;;;;;5052853;28;20033;-37
2023/08/19 00:40:36;;;;;;;21.85;4.00;;;;;;;;;;5067089;28;20040;-37
2023/08/19 00:43:05;;;;;;;19.95;3.70;;;;;;;;;;5072578;28;20035;-37
2023/08/19 00:45:32;;;;;;;11.98;3.05;;;;;;;;;;5072640;28;20040;-37
2023/08/19 00:47:59;;;;;;;12.43;2.95;;;;;;;;;;5072670;28;20073;-37
2023/08/19 00:50:26;;;;;;;19.50;3.53;;;;;;;;;;5058687;28;20033;-37
2023/08/19 00:52:53;;;;;;;16.15;2.88;;;;;;;;;;5067198;28;20269;-37
2023/08/19 00:55:22;;;;;;;17.05;3.00;;;;;;;;;;5063936;28;20029;-37
2023/08/19 00:57:49;;;;;;;15.30;3.30;;;;;;;;;;5072149;28;20020;-38
2023/08/19 01:00:16;;;;;;;16.10;3.17;;;;;;;;;;5056319;28;20033;-37
2023/08/19 01:02:44;;;;;;;15.82;3.38;;;;;;;;;;5051267;28;20563;-37
2023/08/19 01:05:12;;;;;;;12.55;3.00;;;;;;;;;;5052010;28;20044;-37
2023/08/19 01:07:55;;;;;;;14.32;2.70;;;;;;;;;;5052286;28;20025;-37
2023/08/19 01:10:24;;;;;;;13.93;2.75;;;;;;;;;;5058420;28;20493;-38
2023/08/19 01:12:54;;;;;;;17.63;2.90;;;;;;;;;;5071907;28;20048;-37
2023/08/19 01:15:33;;;;;;;16.98;3.30;;;;;;;;;;5072207;28;20024;-34
2023/08/19 01:18:02;;;;;;;21.15;3.22;;;;;;;;;;5057914;28;20502;-34
2023/08/19 01:20:31;;;;;;;30.63;3.17;;;;;;;;;;5071543;28;20516;-34
2023/08/19 01:23:05;;;;;;;18.92;3.50;;;;;;;;;;5058958;28;20086;-33
2023/08/19 01:25:33;;;;;;;14.13;3.38;;;;;;;;;;5058150;28;20029;-34
2023/08/19 01:28:03;;;;;;;11.23;2.70;;;;;;;;;;5062434;28;20031;-34
2023/08/19 01:30:31;;;;;;;15.02;3.55;;;;;;;;;;5062323;28;20035;-34
2023/08/19 01:32:58;;;;;;;19.88;3.53;;;;;;;;;;5050998;28;20123;-34
2023/08/19 01:35:26;;;;;;;15.63;3.50;;;;;;;;;;5051405;28;20103;-34
2023/08/19 01:37:56;;;;;;;18.58;3.67;;;;;;;;;;5052078;28;20064;-34
2023/08/19 01:40:26;;;;;;;19.40;4.05;;;;;;;;;;5051291;28;20063;-34
2023/08/19 01:42:54;;;;;;;17.65;3.42;;;;;;;;;;5051068;28;20099;-34
2023/08/19 01:45:22;;;;;;;19.05;3.42;;;;;;;;;;5061319;28;20063;-34
2023/08/19 01:47:55;;;;;;;19.52;3.72;;;;;;;;;;5053640;28;20104;-34
2023/08/19 01:50:22;;;;;;;12.65;3.20;;;;;;;;;;5051573;28;20036;-34
2023/08/19 01:52:49;;;;;;;12.85;3.58;;;;;;;;;;5051409;28;20074;-34
2023/08/19 01:55:16;;;;;;;27.23;3.80;;;;;;;;;;5060535;28;20436;-34
2023/08/19 01:57:43;;;;;;;15.07;3.30;;;;;;;;;;5060927;28;20473;-34
2023/08/19 02:00:11;;;;;;;17.42;3.70;;;;;;;;;;5060709;28;20028;-34
2023/08/19 02:02:38;;;;;;;16.15;3.15;;;;;;;;;;5053940;28;20025;-34
2023/08/19 02:05:05;;;;;;;11.93;3.22;;;;;;;;;;5057173;28;20124;-34
2023/08/19 02:07:32;;;;;;;12.27;2.92;;;;;;;;;;5061823;28;20037;-34
2023/08/19 02:09:59;;;;;;;11.13;3.08;;;;;;;;;;5060486;28;20112;-34
2023/08/19 02:12:26;;;;;;;16.35;3.13;;;;;;;;;;5054782;28;20025;-34
2023/08/19 02:14:53;;;;;;;12.57;2.80;;;;;;;;;;5059125;28;20082;-34
2023/08/19 02:17:20;;;;;;;13.65;3.38;;;;;;;;;;5060895;28;20028;-34
2023/08/19 02:19:47;;;;;;;14.23;3.08;;;;;;;;;;5061614;28;20029;-34
2023/08/19 02:22:14;;;;;;;13.75;2.88;;;;;;;;;;5059429;28;20529;-34
2023/08/19 02:24:41;;;;;;;9.85;2.42;;;;;;;;;;5060988;28;20059;-34
2023/08/19 02:27:08;;;;;;;18.02;2.92;;;;;;;;;;5061636;28;20471;-34
2023/08/19 02:29:35;;;;;;;11.18;2.95;;;;;;;;;;5059876;28;20025;-34
2023/08/19 02:32:02;;;;;;;12.52;2.92;;;;;;;;;;5060759;28;20065;-34
2023/08/19 02:34:29;;;;;;;14.82;2.90;;;;;;;;;;5060684;28;20116;-34
2023/08/19 02:36:56;;;;;;;14.27;2.72;;;;;;;;;;5059305;28;20103;-35
2023/08/19 02:39:23;;;;;;;10.68;2.63;;;;;;;;;;5059409;28;20029;-34
2023/08/19 02:41:50;;;;;;;11.75;2.55;;;;;;;;;;5060338;28;20020;-34
2023/08/19 02:44:17;;;;;;;7.68;2.53;;;;;;;;;;5059273;28;20024;-34
2023/08/19 02:46:44;;;;;;;7.63;2.17;;;;;;;;;;5056829;28;20041;-34
2023/08/19 02:49:11;;;;;;;9.95;2.33;;;;;;;;;;5061320;28;20052;-34
2023/08/19 02:51:38;;;;;;;7.75;2.35;;;;;;;;;;5056273;28;20048;-34
2023/08/19 02:54:05;;;;;;;8.20;2.38;;;;;;;;;;5051204;28;20048;-34
2023/08/19 02:56:32;;;;;;;9.43;2.13;;;;;;;;;;5050940;28;20021;-34
2023/08/19 02:58:59;;;;;;;7.70;2.53;;;;;;;;;;5051013;28;20072;-34
2023/08/19 03:01:26;;;;;;;8.13;2.55;;;;;;;;;;5050831;28;20025;-34
2023/08/19 03:03:53;;;;;;;8.75;2.63;;;;;;;;;;5051052;28;20049;-34
2023/08/19 03:06:20;;;;;;;10.95;2.42;;;;;;;;;;5051083;28;20118;-34
2023/08/19 03:08:47;;;;;;;8.27;2.20;;;;;;;;;;5050977;28;20103;-34
2023/08/19 03:11:14;;;;;;;6.82;1.90;;;;;;;;;;5049559;28;20036;-34
2023/08/19 03:13:41;;;;;;;11.57;2.35;;;;;;;;;;5050906;28;20040;-34
2023/08/19 03:16:08;;;;;;;6.95;2.63;;;;;;;;;;5050869;28;20078;-34
2023/08/19 03:18:34;;;;;;;9.15;2.30;;;;;;;;;;5050951;28;20100;-34
2023/08/19 03:21:01;;;;;;;6.00;2.15;;;;;;;;;;5050968;28;20037;-34
2023/08/19 03:23:29;;;;;;;6.50;2.10;;;;;;;;;;5050891;28;20072;-34
2023/08/19 03:25:57;;;;;;;8.20;2.00;;;;;;;;;;5051419;28;20033;-34
2023/08/19 03:28:24;;;;;;;5.30;1.98;;;;;;;;;;5054318;28;20518;-34
2023/08/19 03:30:51;;;;;;;7.55;1.73;;;;;;;;;;5054489;28;20028;-34
2023/08/19 03:33:20;;;;;;;7.45;1.95;;;;;;;;;;5054263;28;20111;-34
2023/08/19 03:35:47;;;;;;;7.72;1.92;;;;;;;;;;5054061;28;20403;-34
2023/08/19 03:38:15;;;;;;;6.78;2.00;;;;;;;;;;5054215;28;20064;-34
2023/08/19 03:40:42;;;;;;;5.63;1.60;;;;;;;;;;5054037;28;20399;-34
2023/08/19 03:43:12;;;;;;;7.15;1.95;;;;;;;;;;5054059;28;20036;-34
2023/08/19 03:45:39;;;;;;;3.70;1.67;;;;;;;;;;5054203;28;20051;-34
2023/08/19 03:48:06;;;;;;;9.70;1.83;;;;;;;;;;5053985;28;20438;-34
2023/08/19 03:50:33;;;;;;;8.80;1.90;;;;;;;;;;5068137;28;20021;-34
2023/08/19 03:53:00;;;;;;;5.70;1.77;;;;;;;;;;5073852;28;20049;-34
2023/08/19 03:55:27;;;;;;;4.18;1.50;;;;;;;;;;5074024;28;20039;-34
2023/08/19 03:57:55;;;;;;;6.35;1.80;;;;;;;;;;5073899;28;20032;-34
2023/08/19 04:00:22;;;;;;;5.47;1.67;;;;;;;;;;5073664;28;20032;-34
2023/08/19 04:02:49;;;;;;;5.93;1.88;;;;;;;;;;5073660;28;20386;-34
2023/08/19 04:05:16;;;;;;;4.55;1.65;;;;;;;;;;5073656;28;20024;-34
2023/08/19 04:07:43;;;;;;;3.90;1.52;;;;;;;;;;5073786;28;20101;-34
2023/08/19 04:10:10;;;;;;;4.22;1.77;;;;;;;;;;5073593;28;20035;-34
2023/08/19 04:12:37;;;;;;;3.88;1.60;;;;;;;;;;5073540;28;20029;-34
2023/08/19 04:15:05;;;;;;;3.70;1.60;;;;;;;;;;5073625;28;20059;-34
2023/08/19 04:17:35;;;;;;;3.78;1.70;;;;;;;;;;5073590;28;20029;-34
2023/08/19 04:20:08;;;;;;;4.82;1.40;;;;;;;;;;5073512;28;20036;-34
2023/08/19 04:22:35;;;;;;;;;;;;;;;;;;5073822;28;20086;-34
2023/08/19 04:25:02;;;;;;;2.92;1.45;;;;;;;;;;5073378;28;19996;-34
2023/08/19 04:27:31;;;;;;;5.40;1.50;;;;;;;;;;5073369;28;20029;-34
2023/08/19 04:29:58;;;;;;;4.82;1.38;;;;;;;;;;5073288;28;20402;-34
2023/08/19 04:32:25;;;;;;;6.07;1.42;;;;;;;;;;5073160;28;20024;-34
2023/08/19 04:34:52;;;;;;;5.40;1.45;;;;;;;;;;5073134;28;20035;-34
2023/08/19 04:37:19;;;;;;;4.68;1.48;;;;;;;;;;5072100;28;20053;-34
2023/08/19 04:39:46;;;;;;;3.15;1.30;;;;;;;;;;5073066;28;20071;-34
2023/08/19 04:42:13;;;;;;;2.67;1.00;;;;;;;;;;5073038;28;20560;-34
2023/08/19 04:44:40;;;;;;;6.97;1.30;;;;;;;;;;5072983;28;20029;-34
2023/08/19 04:47:07;;;;;;;2.70;0.90;;;;;;;;;;5072928;28;20035;-34
2023/08/19 04:49:34;;;;;;;4.30;1.20;;;;;;;;;;5072954;28;20514;-34
2023/08/19 04:52:03;;;;;;;3.42;0.93;;;;;;;;;;5072896;28;20051;-34
2023/08/19 04:54:30;;;;;;;3.40;1.20;;;;;;;;;;5072844;28;20028;-34
2023/08/19 04:56:57;;;;;;;2.97;1.02;;;;;;;;;;5072814;28;20635;-34
2023/08/19 04:59:24;;;;;;;3.80;1.30;;;;;;;;;;5072613;28;20059;-34
2023/08/19 05:01:51;;;;;;;2.85;1.17;;;;;;;;;;5072458;28;20498;-34
2023/08/19 05:04:18;;;;;;;3.20;1.25;;;;;;;;;;5072654;28;20112;-34
2023/08/19 05:06:45;;;;;;;2.53;1.10;;;;;;;;;;5072455;28;20471;-34
2023/08/19 05:09:13;;;;;;;2.63;1.10;;;;;;;;;;5072586;28;20499;-34
2023/08/19 05:11:40;;;;;;;1.70;0.98;;;;;;;;;;5072416;28;20081;-34
2023/08/19 05:14:07;;;;;;;3.20;1.00;;;;;;;;;;5072297;28;20032;-34
2023/08/19 05:16:34;;;;;;;4.68;1.25;;;;;;;;;;5072457;28;20032;-34
2023/08/19 05:19:06;;;;;;;3.05;1.08;;;;;;;;;;5072415;28;20043;-34
2023/08/19 05:21:33;;;;;;;3.40;1.00;;;;;;;;;;5072296;28;20426;-34
2023/08/19 05:24:00;;;;;;;4.45;1.17;;;;;;;;;;5072319;28;20063;-34
2023/08/19 05:26:27;;;;;;;1.90;0.90;;;;;;;;;;5072320;28;20036;-34
2023/08/19 05:28:54;;;;;;;1.75;0.80;;;;;;;;;;5072290;28;20402;-34
2023/08/19 05:31:21;;;;;;;2.42;0.95;;;;;;;;;;5072132;28;20510;-34
2023/08/19 05:33:48;;;;;;;2.13;0.80;;;;;;;;;;5072053;28;20106;-34
2023/08/19 05:36:15;;;;;;;4.07;0.82;;;;;;;;;;5071730;28;20052;-34
2023/08/19 05:38:42;;;;;;;3.10;0.80;;;;;;;;;;5071924;28;20035;-35
2023/08/19 05:41:09;;;;;;;3.13;0.90;;;;;;;;;;5071997;28;20043;-34
2023/08/19 05:43:36;;;;;;;3.67;0.90;;;;;;;;;;5071968;28;20490;-34
2023/08/19 05:46:07;;;;;;;2.83;0.68;;;;;;;;;;5071985;28;20028;-34
2023/08/19 05:48:34;;;;;;;1.73;0.70;;;;;;;;;;5071856;28;20101;-34
2023/08/19 05:51:01;;;;;;;2.47;0.80;;;;;;;;;;5071719;28;20036;-34
2023/08/19 05:53:28;;;;;;;1.35;0.90;;;;;;;;;;5071805;28;20031;-34
2023/08/19 05:55:55;;;;;;;2.78;1.00;;;;;;;;;;5071835;28;20079;-34
2023/08/19 05:58:22;;;;;;;3.13;1.08;;;;;;;;;;5071777;28;20032;-34
2023/08/19 06:00:49;;;;;;;2.72;0.73;;;;;;;;;;5068144;28;20052;-35
2023/08/19 06:03:16;;;;;;;1.80;0.60;;;;;;;;;;5050448;28;20438;-34
2023/08/19 06:05:43;;;;;;;1.13;0.68;;;;;;;;;;5051676;28;20025;-34
2023/08/19 06:08:12;;;;;;;1.67;1.00;;;;;;;;;;5050423;28;20031;-34
2023/08/19 06:10:43;;;;;;;1.92;0.90;;;;;;;;;;5051569;28;20131;-34
2023/08/19 06:13:11;;;;;;;1.52;0.75;;;;;;;;;;5050283;28;20072;-34
2023/08/19 06:15:37;;;;;;;1.83;0.88;;;;;;;;;;5051578;28;20037;-34
2023/08/19 06:18:05;;;;;;;2.83;0.70;;;;;;;;;;5051563;28;20487;-34
2023/08/19 06:20:32;;;;;;;2.25;0.82;;;;;;;;;;5051507;28;20510;-34
2023/08/19 06:22:59;;;;;;;1.65;0.70;;;;;;;;;;5051367;28;20047;-34
2023/08/19 06:25:26;;;;;;;2.45;0.80;;;;;;;;;;5051437;28;20029;-34
2023/08/19 06:27:53;;;;;;;1.33;0.80;;;;;;;;;;5051692;28;20029;-34
2023/08/19 06:30:20;;;;;;;2.90;0.80;;;;;;;;;;5051538;28;20079;-34
2023/08/19 06:32:47;;;;;;;1.73;0.60;;;;;;;;;;5051039;28;20776;-34
2023/08/19 06:35:15;;;;;;;2.90;0.80;;;;;;;;;;5051324;28;20036;-34
2023/08/19 06:37:43;;;;;;;1.45;0.68;;;;;;;;;;5051251;28;20053;-34
2023/08/19 06:40:29;;;;;;;2.10;0.65;;;;;;;;;;5051382;28;20033;-34
2023/08/19 06:42:57;;;;;;;1.30;0.70;;;;;;;;;;5051052;28;20065;-34
2023/08/19 06:45:25;;;;;;;2.28;0.65;;;;;;;;;;5051565;28;20044;-34
2023/08/19 06:47:53;;;;;;;2.67;0.80;;;;;;;;;;5051032;28;20029;-34
2023/08/19 06:50:20;;;;;;;1.30;0.60;;;;;;;;;;5051233;28;20610;-34
2023/08/19 06:52:48;;;;;;;1.35;0.63;;;;;;;;;;5051149;28;20143;-34
2023/08/19 06:55:15;;;;;;;1.92;0.60;;;;;;;;;;5051286;28;20098;-34
2023/08/19 06:57:49;;;;;;;2.08;0.60;;;;;;;;;;5051216;28;20060;-34
2023/08/19 07:00:16;;;;;;;1.90;0.80;;;;;;;;;;5052180;28;20040;-34
2023/08/19 07:02:43;;;;;;;2.50;0.82;;;;;;;;;;5054857;28;20029;-34
2023/08/19 07:05:15;;;;;;;2.53;0.60;;;;;;;;;;5055118;28;20071;-34
2023/08/19 07:07:47;;;;;;;4.15;0.80;;;;;;;;;;5054931;28;20047;-34
2023/08/19 07:10:21;;;;;;;1.75;0.65;;;;;;;;;;5054827;28;20106;-34
2023/08/19 07:12:48;;;;;;;1.90;0.60;;;;;;;;;;5054745;28;20029;-34
2023/08/19 07:15:16;;;;;;;1.73;0.60;;;;;;;;;;5054831;28;20474;-34
2023/08/19 07:17:43;;;;;;;2.03;0.40;;;;;;;;;;5054806;28;20029;-34
2023/08/19 07:20:12;;;;;;;2.67;0.80;;;;;;;;;;5054570;28;20055;-34
2023/08/19 07:22:39;;;;;;;1.30;0.65;;;;;;;;;;5054524;28;20100;-34
2023/08/19 07:25:07;;;;;;;1.30;0.60;;;;;;;;;;5054555;28;20036;-34
2023/08/19 07:27:35;;;;;;;1.45;0.57;;;;;;;;;;5054521;28;20044;-34
2023/08/19 07:30:03;;;;;;;0.98;0.65;;;;;;;;;;5053165;28;20522;-34
2023/08/19 07:32:31;;;;;;;1.42;0.45;;;;;;;;;;5054405;28;20036;-34
2023/08/19 07:34:58;;;;;;;1.27;0.65;;;;;;;;;;5054349;28;20384;-34
2023/08/19 07:37:26;;;;;;;1.33;0.63;;;;;;;;;;5054183;28;20033;-34
2023/08/19 07:39:53;;;;;;;2.20;0.50;;;;;;;;;;5054232;28;20422;-34
2023/08/19 07:42:20;;;;;;;1.88;0.60;;;;;;;;;;5054172;28;20475;-34
2023/08/19 07:44:47;;;;;;;3.28;0.68;;;;;;;;;;5054207;28;20509;-34
2023/08/19 07:47:14;;;;;;;0.90;0.50;;;;;;;;;;5054196;28;20455;-34
2023/08/19 07:49:41;;;;;;;1.92;0.40;;;;;;;;;;5054073;28;20037;-34
2023/08/19 07:52:08;;;;;;;1.08;0.57;;;;;;;;;;5054001;28;20043;-34
2023/08/19 07:54:35;;;;;;;2.55;0.60;;;;;;;;;;5054009;28;20104;-34
2023/08/19 07:57:02;;;;;;;1.83;0.60;;;;;;;;;;5054020;28;20025;-34
2023/08/19 07:59:29;;;;;;;2.17;0.52;;;;;;;;;;5053888;28;20403;-34
2023/08/19 08:01:56;;;;;;;2.38;0.60;;;;;;;;;;5053732;28;20025;-34
2023/08/19 08:04:24;;;;;;;2.78;0.60;;;;;;;;;;5053929;28;20074;-34
2023/08/19 08:06:51;;;;;;;0.95;0.52;;;;;;;;;;5053716;28;20037;-34
2023/08/19 08:09:19;;;;;;;0.93;0.40;;;;;;;;;;5053895;28;20772;-34
2023/08/19 08:11:48;;;;;;;2.22;0.60;;;;;;;;;;5052486;28;20033;-34
2023/08/19 08:14:16;;;;;;;0.80;0.40;;;;;;;;;;5053676;28;20040;-34
2023/08/19 08:16:43;;;;;;;1.48;0.43;;;;;;;;;;5053577;28;20055;-34
2023/08/19 08:19:10;;;;;;;0.88;0.50;;;;;;;;;;5053590;28;20411;-34
2023/08/19 08:21:37;;;;;;;1.25;0.60;;;;;;;;;;5053314;28;20036;-34
2023/08/19 08:24:04;;;;;;;0.88;0.40;;;;;;;;;;5053487;28;20549;-34
2023/08/19 08:26:31;;;;;;;1.80;0.40;;;;;;;;;;5053383;28;20432;-34
2023/08/19 08:28:58;;;;;;;0.88;0.50;;;;;;;;;;5052054;28;20029;-34
2023/08/19 08:31:25;;;;;;;1.20;0.60;;;;;;;;;;5053336;28;20049;-34
2023/08/19 08:33:52;;;;;;;0.98;0.40;;;;;;;;;;5053367;28;20052;-34
2023/08/19 08:36:19;;;;;;;0.93;0.40;;;;;;;;;;5053091;28;20091;-34
2023/08/19 08:38:46;;;;;;;2.10;0.57;;;;;;;;;;5053193;28;20039;-34
2023/08/19 08:41:14;;;;;;;0.80;0.40;;;;;;;;;;5053056;28;20050;-34
2023/08/19 08:43:42;;;;;;;1.05;0.43;;;;;;;;;;5053182;28;20031;-34
2023/08/19 08:46:09;;;;;;;1.10;0.43;;;;;;;;;;5053035;28;20039;-34
2023/08/19 08:48:36;;;;;;;1.38;0.40;;;;;;;;;;5052877;28;20073;-34
2023/08/19 08:51:03;;;;;;;2.10;0.38;;;;;;;;;;5052936;28;20037;-34
2023/08/19 08:53:30;;;;;;;1.35;0.40;;;;;;;;;;5052847;28;20021;-34
2023/08/19 08:55:58;;;;;;;0.80;0.50;;;;;;;;;;5052845;28;20083;-34
2023/08/19 08:58:25;;;;;;;1.17;0.57;;;;;;;;;;5052796;28;20033;-34
2023/08/19 09:00:52;;;;;;;0.50;0.40;;;;;;;;;;5062278;28;20040;-34
2023/08/19 09:03:21;;;;;;;0.90;0.45;;;;;;;;;;5072740;28;20021;-34
2023/08/19 09:05:50;;;;;;;0.65;0.40;;;;;;;;;;5065996;28;20555;-34
2023/08/19 09:08:18;;;;;;;0.85;0.40;;;;;;;;;;5055217;28;20119;-34
2023/08/19 09:10:47;;;;;;;1.10;0.45;;;;;;;;;;5052532;28;20033;-34
2023/08/19 09:13:16;;;;;;;0.90;0.50;;;;;;;;;;5051221;28;20402;-34
2023/08/19 09:15:43;;;;;;;1.42;0.47;;;;;;;;;;5052531;28;20387;-34
2023/08/19 09:18:10;;;;;;;1.65;0.50;;;;;;;;;;5052497;28;20041;-34
2023/08/19 09:20:38;;;;;;;2.78;0.40;;;;;;;;;;5050930;28;20033;-34
2023/08/19 09:23:06;;;;;;;1.17;0.40;;;;;;;;;;5052126;28;20028;-34
2023/08/19 09:25:33;;;;;;;0.68;0.40;;;;;;;;;;5052079;28;20064;-34
2023/08/19 09:28:00;;;;;;;1.02;0.45;;;;;;;;;;5052364;28;20029;-34
2023/08/19 09:30:33;;;;;;;2.38;0.55;;;;;;;;;;5052196;28;20048;-34
2023/08/19 09:33:00;;;;;;;0.60;0.50;;;;;;;;;;5052188;28;20040;-34
2023/08/19 09:35:37;;;;;;;0.90;0.40;;;;;;;;;;5050760;28;20408;-34
2023/08/19 09:38:04;;;;;;;1.15;0.45;;;;;;;;;;5052042;28;20057;-34
2023/08/19 09:40:31;;;;;;;1.40;0.40;;;;;;;;;;5051941;28;20037;-34
2023/08/19 09:42:58;;;;;;;0.55;0.35;;;;;;;;;;5051934;28;20029;-34
2023/08/19 09:45:26;;;;;;;1.38;0.50;;;;;;;;;;5050715;28;20074;-34
2023/08/19 09:47:54;;;;;;;0.85;0.40;;;;;;;;;;5052002;28;20033;-34
2023/08/19 09:50:24;;;;;;;1.40;0.60;;;;;;;;;;5052003;28;20032;-34
2023/08/19 09:52:54;;;;;;;0.43;0.30;;;;;;;;;;5051948;28;20036;-34
2023/08/19 09:55:35;;;;;;;1.80;0.40;;;;;;;;;;5051766;28;20029;-34
2023/08/19 09:58:02;;;;;;;1.13;0.43;;;;;;;;;;5051876;28;20029;-34
2023/08/19 10:00:29;;;;;;;1.27;0.45;;;;;;;;;;5051566;28;20044;-34
2023/08/19 10:02:56;;;;;;;1.30;0.50;;;;;;;;;;5051688;28;20036;-34
2023/08/19 10:05:24;;;;;;;0.80;0.40;;;;;;;;;;5051553;28;20036;-34
2023/08/19 10:07:54;;;;;;;1.02;0.35;;;;;;;;;;5051663;28;20029;-34
2023/08/19 10:10:21;;;;;;;1.70;0.35;;;;;;;;;;5051711;28;20033;-34
2023/08/19 10:12:51;;;;;;;0.63;0.40;;;;;;;;;;5051532;28;20045;-34
2023/08/19 10:15:19;;;;;;;1.58;0.40;;;;;;;;;;5051762;28;20068;-34
2023/08/19 10:17:49;;;;;;;0.88;0.50;;;;;;;;;;5051539;28;20387;-34
2023/08/19 10:20:18;;;;;;;0.60;0.32;;;;;;;;;;5051454;28;20372;-34
2023/08/19 10:22:48;;;;;;;1.15;0.30;;;;;;;;;;5051438;28;20124;-34
2023/08/19 10:25:18;;;;;;;0.68;0.32;;;;;;;;;;5051532;28;20075;-34
2023/08/19 10:27:45;;;;;;;2.05;0.57;;;;;;;;;;5051474;28;20040;-34
2023/08/19 10:30:24;;;;;;;0.43;0.28;;;;;;;;;;5051406;28;20035;-34
2023/08/19 10:32:51;;;;;;;0.52;0.35;;;;;;;;;;5051412;28;20040;-34
2023/08/19 10:35:18;;;;;;;2.47;0.50;;;;;;;;;;5052618;28;20090;-34
2023/08/19 10:37:49;;;;;;;0.77;0.40;;;;;;;;;;5055350;28;20076;-34
2023/08/19 10:40:19;;;;;;;0.88;0.40;;;;;;;;;;5055379;28;20401;-34
2023/08/19 10:42:53;;;;;;;0.60;0.30;;;;;;;;;;5055341;28;20098;-34
2023/08/19 10:45:20;;;;;;;1.40;0.40;;;;;;;;;;5055314;28;20086;-34
2023/08/19 10:47:51;;;;;;;0.70;0.45;;;;;;;;;;5055312;28;20075;-34
2023/08/19 10:50:18;;;;;;;0.82;0.43;;;;;;;;;;5055254;28;20041;-34
2023/08/19 10:52:58;;;;;;;0.30;0.30;;;;;;;;;;5055288;28;20060;-34
2023/08/19 10:55:25;;;;;;;0.68;0.38;;;;;;;;;;5055187;28;20039;-34
2023/08/19 10:57:52;;;;;;;0.70;0.35;;;;;;;;;;5055236;28;20029;-34
2023/08/19 11:00:31;;;;;;;2.35;0.50;;;;;;;;;;5055017;28;20112;-34
2023/08/19 11:02:58;;;;;;;0.80;0.40;;;;;;;;;;5055119;28;20540;-34
2023/08/19 11:05:26;;;;;;;1.65;0.40;;;;;;;;;;5054956;28;20478;-34
2023/08/19 11:07:54;;;;;;;0.80;0.30;;;;;;;;;;5055008;28;20054;-34
2023/08/19 11:10:22;;;;;;;1.35;0.40;;;;;;;;;;5054817;28;20045;-34
2023/08/19 11:12:49;;;;;;;1.13;0.35;;;;;;;;;;5054751;28;20509;-34
2023/08/19 11:15:24;;;;;;;0.70;0.30;;;;;;;;;;5071950;28;20036;-34
2023/08/19 11:17:51;;;;;;;0.50;0.30;;;;;;;;;;5054708;28;20029;-34
2023/08/19 11:20:19;;;;;;;0.63;0.40;;;;;;;;;;5054586;28;20112;-34
2023/08/19 11:22:46;;;;;;;0.93;0.40;;;;;;;;;;5054646;28;20025;-34
2023/08/19 11:25:14;;;;;;;0.50;0.30;;;;;;;;;;5054563;28;20475;-34
2023/08/19 11:27:41;;;;;;;1.98;0.35;;;;;;;;;;5054632;28;20037;-34
2023/08/19 11:30:12;;;;;;;0.88;0.35;;;;;;;;;;5059079;28;20025;-34
2023/08/19 11:32:39;;;;;;;4.30;0.40;;;;;;;;;;5063044;28;20050;-34
2023/08/19 11:35:06;;;;;;;1.48;0.30;;;;;;;;;;5063486;28;20057;-34
2023/08/19 11:37:33;;;;;;;1.33;0.47;;;;;;;;;;5052956;28;20045;-34
2023/08/19 11:40:05;;;;;;;1.50;0.50;;;;;;;;;;5054177;28;20044;-34
2023/08/19 11:42:32;;;;;;;0.73;0.30;;;;;;;;;;5054152;28;20085;-34
2023/08/19 11:44:59;;;;;;;7.20;0.75;;;;;;;;;;5065551;28;20158;-44
2023/08/19 11:47:33;;;;;;;1.02;0.30;;;;;;;;;;5073359;28;20043;-45
2023/08/19 11:50:01;;;;;;;0.98;0.40;;;;;;;;;;5073487;28;20032;-44
2023/08/19 11:52:28;;;;;;;1.40;0.45;;;;;;;;;;5072194;28;20036;-44
2023/08/19 11:54:59;;;;;;;5.15;0.60;;;;;;;;;;5072814;28;20075;-44
2023/08/19 11:57:26;;;;;;;1.25;0.50;;;;;;;;;;5073830;28;20036;-45
2023/08/19 11:59:59;;;;;;;3.15;0.60;;;;;;;;;;5054920;28;20491;-45
2023/08/19 12:02:26;;;;;;;3.35;0.60;;;;;;;;;;5052021;28;20060;-45
2023/08/19 12:04:56;;;;;;;2.95;0.60;;;;;;;;;;5053247;28;20064;-45
2023/08/19 12:07:30;;;;;;;3.13;0.55;;;;;;;;;;5053799;28;20055;-46
2023/08/19 12:09:58;;;;;;;4.13;0.65;;;;;;;;;;5052646;28;20045;-38
2023/08/19 12:12:25;;;;;;;3.40;0.70;;;;;;;;;;5052604;28;20128;-39
2023/08/19 12:14:53;;;;;;;5.28;0.80;;;;;;;;;;5052853;28;20048;-41
2023/08/19 12:17:20;;;;;;;5.28;0.70;;;;;;;;;;5062890;28;20079;-41
2023/08/19 12:19:47;;;;;;;6.60;0.77;;;;;;;;;;5058186;28;20454;-42
2023/08/19 12:22:14;;;;;;;6.95;1.02;;;;;;;;;;5055527;28;20424;-43
2023/08/19 12:24:41;;;;;;;3.20;0.60;;;;;;;;;;5061124;28;20025;-42
2023/08/19 12:27:08;;;;;;;24.60;1.73;;;;;;;;;;5063376;28;20766;-42
2023/08/19 12:29:36;;;;;;;10.00;1.08;;;;;;;;;;5061122;28;20052;-43
2023/08/19 12:32:03;;;;;;;7.53;1.00;;;;;;;;;;5062678;28;20048;-43
2023/08/19 12:34:30;;;;;;;5.68;0.63;;;;;;;;;;5061732;28;20399;-42
2023/08/19 12:36:57;;;;;;;6.85;0.93;;;;;;;;;;5060249;28;20048;-36
2023/08/19 12:39:25;;;;;;;9.73;1.42;;;;;;;;;;5055023;28;20040;-41
2023/08/19 12:41:53;;;;;;;10.05;1.08;;;;;;;;;;5052462;28;20628;-41
2023/08/19 12:44:19;;;;;;;7.15;1.35;;;;;;;;;;5063284;28;20085;-42
2023/08/19 12:46:48;;;;;;;4.70;0.80;;;;;;;;;;5051417;28;20032;-42
2023/08/19 12:49:15;;;;;;;16.50;1.10;;;;;;;;;;5052332;28;20033;-43
2023/08/19 12:51:42;;;;;;;7.68;1.00;;;;;;;;;;5065684;28;20028;-42
2023/08/19 12:54:09;;;;;;;5.43;0.80;;;;;;;;;;5061840;28;20036;-40
2023/08/19 12:56:36;;;;;;;8.18;1.00;;;;;;;;;;5058327;28;20060;-42
2023/08/19 12:59:03;;;;;;;10.00;0.90;;;;;;;;;;5062280;28;20115;-38
2023/08/19 13:01:30;;;;;;;12.13;1.20;;;;;;;;;;5053450;28;20387;-42
2023/08/19 13:03:57;;;;;;;18.00;1.85;;;;;;;;;;5054358;28;20091;-38
2023/08/19 13:06:24;;;;;;;14.30;1.50;;;;;;;;;;5063421;28;20075;-42
2023/08/19 13:08:51;;;;;;;17.88;1.48;;;;;;;;;;5057835;28;20087;-43
2023/08/19 13:11:18;;;;;;;16.92;1.77;;;;;;;;;;5055958;28;20788;-41
2023/08/19 13:13:45;;;;;;;9.30;1.30;;;;;;;;;;5052337;28;20039;-41
2023/08/19 13:16:12;;;;;;;16.13;1.60;;;;;;;;;;5051968;28;20044;-41
2023/08/19 13:18:39;;;;;;;14.05;1.20;;;;;;;;;;5066998;28;20024;-39
2023/08/19 13:21:06;;;;;;;22.98;2.20;;;;;;;;;;5071261;28;20043;-38
2023/08/19 13:23:33;;;;;;;20.77;1.48;;;;;;;;;;5071980;28;20036;-39
2023/08/19 13:26:00;;;;;;;16.42;1.80;;;;;;;;;;5064926;28;20033;-39
2023/08/19 13:28:28;;;;;;;35.22;2.08;;;;;;;;;;5056121;28;20624;-44
2023/08/19 13:30:56;;;;;;;29.85;2.05;;;;;;;;;;5061248;28;20032;-46
2023/08/19 13:33:23;;;;;;;16.33;1.70;;;;;;;;;;5071982;28;20048;-36
2023/08/19 13:35:50;;;;;;;14.77;1.70;;;;;;;;;;5071263;28;20034;-43
2023/08/19 13:38:17;;;;;;;14.50;1.50;;;;;;;;;;5064501;28;20033;-40
2023/08/19 13:40:44;;;;;;;19.45;1.50;;;;;;;;;;5064938;28;20573;-41
2023/08/19 13:43:12;;;;;;;16.77;1.52;;;;;;;;;;5058698;28;20376;-39
2023/08/19 13:45:39;;;;;;;23.65;1.42;;;;;;;;;;5059886;28;20028;-40
2023/08/19 13:48:06;;;;;;;14.48;1.42;;;;;;;;;;5070206;28;20067;-45
2023/08/19 13:50:33;;;;;;;12.05;1.38;;;;;;;;;;5058342;28;20027;-44
2023/08/19 13:53:00;;;;;;;12.18;1.20;;;;;;;;;;5051343;28;20391;-44
2023/08/19 13:55:27;;;;;;;24.98;2.08;;;;;;;;;;5054657;28;20036;-44
2023/08/19 13:57:54;;;;;;;20.10;1.55;;;;;;;;;;5064528;28;20399;-37
2023/08/19 14:00:22;;;;;;;19.25;1.60;;;;;;;;;;5068451;28;20124;-32
2023/08/19 14:02:49;;;;;;;10.52;1.50;;;;;;;;;;5071258;28;20487;-32
2023/08/19 14:05:16;;;;;;;14.18;1.40;;;;;;;;;;5066011;28;20120;-37
2023/08/19 14:07:44;;;;;;;12.43;1.17;;;;;;;;;;5071584;28;20111;-41
2023/08/19 14:10:11;;;;;;;13.13;1.60;;;;;;;;;;5070155;28;20027;-43
2023/08/19 14:12:38;;;;;;;13.07;1.50;;;;;;;;;;5071034;28;20074;-42
2023/08/19 14:15:07;;;;;;;14.65;1.40;;;;;;;;;;5073303;28;20020;-43
2023/08/19 14:17:34;;;;;;;8.27;1.38;;;;;;;;;;5091633;28;20122;-43
2023/08/19 14:20:02;;;;;;;12.20;1.50;;;;;;;;;;5077259;28;20028;-43
2023/08/19 14:22:29;;;;;;;14.77;1.38;;;;;;;;;;5071169;28;20445;-44
2023/08/19 14:24:57;;;;;;;8.65;1.02;;;;;;;;;;5071451;28;20028;-45
2023/08/19 14:27:24;;;;;;;12.65;1.40;;;;;;;;;;5064774;28;20120;-44
2023/08/19 14:29:51;;;;;;;10.63;1.00;;;;;;;;;;5055539;28;20112;-44
2023/08/19 14:32:18;;;;;;;9.38;1.15;;;;;;;;;;5070372;28;20024;-43
2023/08/19 14:34:45;;;;;;;10.02;1.00;;;;;;;;;;5071406;28;20025;-43
2023/08/19 14:37:12;;;;;;;16.45;1.63;;;;;;;;;;5061258;28;20083;-43
2023/08/19 14:39:39;;;;;;;10.20;1.52;;;;;;;;;;5051274;28;20051;-42
2023/08/19 14:42:06;;;;;;;8.82;1.38;;;;;;;;;;5056840;28;20029;-44